SOSAM weather

Campo di Volo Samolaco
Samolaco (SO), Lombardy, Italy

Public forecast

Using degrees Celsius for public forecast. Weather courtesy of forecast.io.

Closest aviation weather report (METAR) to Campo di Volo Samolaco

Closest report is Locarno Airport, 23.4 nm (43.4 km) W. Retrieved 2020/03/31 06:20 UTC (54 minutes ago):

LSZL 310620Z VRB02KT 8000 -RA BKN015 OVC030 05/04 Q1021 RMK WHT

Closest aviation forecast (TAF) to Campo di Volo Samolaco

Forecast is more than 12 hours old.

Closest forecast is Il Caravaggio International Airport, 35.6 nm (65.9 km) SSE. Retrieved 2020/03/30 18:00 UTC (13 hours ago):

TAF LIME 301700Z 3018/3118 12010KT 7000 BKN030 TEMPO 3018/3106 RA